Time;durP1;ratioP1;P1;durP2;ratioP2;P2;SDS_P1;SDS_P2;PMS_P1;PMS_P2;Temp;Humidity;BMP_temperature;BMP_pressure;BME280_temperature;BME280_humidity;BME280_pressure;Samples;Min_cycle;Max_cycle;Signal;HPM_P1;HPM_P2
2023/05/19 00:00:46;;;;;;;6.68;2.90;;;11.40;81.80;;;;;;2101798;28;20632;-73
2023/05/19 00:01:47;;;;;;;7.93;3.10;;;11.30;82.50;;;;;;2103540;28;20027;-73
2023/05/19 00:02:47;;;;;;;5.15;2.53;;;11.30;82.10;;;;;;2103711;28;20125;-73
2023/05/19 00:03:53;;;;;;;4.03;2.50;;;11.30;82.00;;;;;;2103194;28;21418;-73
2023/05/19 00:04:54;;;;;;;5.90;2.92;;;11.30;82.30;;;;;;2112353;27;20019;-73
2023/05/19 00:05:57;;;;;;;4.80;2.83;;;11.30;81.90;;;;;;2112119;27;20023;-73
2023/05/19 00:06:59;;;;;;;5.15;3.00;;;11.30;81.70;;;;;;2101996;28;20028;-73
2023/05/19 00:08:00;;;;;;;8.43;3.00;;;11.20;81.80;;;;;;2105090;28;20047;-73
2023/05/19 00:09:08;;;;;;;5.38;3.67;;;11.20;82.40;;;;;;2105477;28;20111;-73
2023/05/19 00:10:09;;;;;;;8.98;3.30;;;11.20;83.50;;;;;;2100883;28;20028;-73
2023/05/19 00:11:10;;;;;;;6.10;3.20;;;11.20;83.60;;;;;;2105909;28;20453;-73
2023/05/19 00:12:11;;;;;;;9.57;3.08;;;11.20;84.00;;;;;;2105423;28;20032;-73
2023/05/19 00:13:12;;;;;;;4.47;2.72;;;11.20;84.70;;;;;;2103340;28;20030;-73
2023/05/19 00:14:13;;;;;;;5.25;2.67;;;11.10;84.70;;;;;;2103584;28;20774;-73
2023/05/19 00:15:14;;;;;;;6.30;3.97;;;11.10;84.50;;;;;;2103170;28;20039;-73
2023/05/19 00:16:15;;;;;;;5.18;3.00;;;11.10;85.10;;;;;;2104462;28;20070;-73
2023/05/19 00:17:15;;;;;;;5.78;3.25;;;11.10;84.90;;;;;;2103535;28;20736;-73
2023/05/19 00:18:16;;;;;;;7.18;2.95;;;11.10;85.20;;;;;;2103078;28;20067;-73
2023/05/19 00:19:17;;;;;;;6.63;3.08;;;11.10;84.90;;;;;;2103924;28;20032;-73
2023/05/19 00:20:18;;;;;;;4.35;3.00;;;11.00;85.10;;;;;;2102869;28;20673;-73
2023/05/19 00:21:19;;;;;;;7.10;3.00;;;11.00;85.30;;;;;;2104733;28;20468;-73
2023/05/19 00:22:20;;;;;;;6.25;3.20;;;11.00;85.90;;;;;;2101338;28;20059;-73
2023/05/19 00:23:20;;;;;;;5.47;3.28;;;11.00;85.80;;;;;;2102291;28;20479;-73
2023/05/19 00:24:21;;;;;;;7.53;3.65;;;11.00;86.00;;;;;;2102497;28;20028;-73
2023/05/19 00:25:21;;;;;;;6.15;3.33;;;11.00;86.90;;;;;;2102322;28;20107;-73
2023/05/19 00:26:23;;;;;;;6.95;3.42;;;11.00;87.30;;;;;;2104963;28;20512;-73
2023/05/19 00:27:23;;;;;;;6.30;2.70;;;10.90;87.80;;;;;;2104414;28;20016;-73
2023/05/19 00:28:24;;;;;;;7.97;3.13;;;10.90;87.30;;;;;;2103903;28;20030;-73
2023/05/19 00:29:24;;;;;;;7.53;3.20;;;10.90;87.90;;;;;;2100828;28;20471;-73
2023/05/19 00:30:25;;;;;;;7.45;3.13;;;10.80;87.40;;;;;;2102354;28;20088;-73
2023/05/19 00:31:26;;;;;;;7.05;2.88;;;10.80;87.30;;;;;;2103693;28;20020;-73
2023/05/19 00:32:26;;;;;;;6.07;3.05;;;10.80;88.20;;;;;;2103735;28;20024;-73
2023/05/19 00:33:27;;;;;;;8.13;3.17;;;10.80;89.00;;;;;;2102451;28;20032;-73
2023/05/19 00:34:27;;;;;;;6.75;3.17;;;10.80;89.60;;;;;;2104073;28;20468;-73
2023/05/19 00:35:28;;;;;;;5.45;2.70;;;10.80;89.80;;;;;;2103318;28;20715;-73
2023/05/19 00:36:29;;;;;;;7.90;3.33;;;10.80;90.00;;;;;;2104341;28;20028;-73
2023/05/19 00:37:29;;;;;;;7.43;3.63;;;10.70;90.20;;;;;;2102707;28;20032;-72
2023/05/19 00:38:31;;;;;;;5.93;3.42;;;10.70;90.50;;;;;;2102876;28;20031;-72
2023/05/19 00:39:31;;;;;;;7.72;3.72;;;10.70;90.70;;;;;;2104473;28;20024;-72
2023/05/19 00:40:35;;;;;;;6.53;3.67;;;10.70;90.70;;;;;;2103167;28;20047;-72
2023/05/19 00:41:35;;;;;;;7.30;3.40;;;10.70;90.70;;;;;;2105287;28;20058;-72
2023/05/19 00:42:37;;;;;;;7.05;3.22;;;10.70;90.90;;;;;;2105015;28;20032;-72
2023/05/19 00:43:37;;;;;;;4.68;3.30;;;10.60;90.60;;;;;;2104634;28;20033;-72
2023/05/19 00:44:40;;;;;;;5.82;3.20;;;10.60;90.70;;;;;;2105138;28;20024;-72
2023/05/19 00:45:40;;;;;;;7.40;3.45;;;10.60;90.80;;;;;;2103844;28;20016;-72
2023/05/19 00:46:41;;;;;;;8.70;3.60;;;10.60;91.10;;;;;;2103581;28;20028;-72
2023/05/19 00:47:41;;;;;;;5.63;3.22;;;10.60;91.30;;;;;;2103880;28;20472;-72
2023/05/19 00:48:44;;;;;;;8.32;3.47;;;10.60;91.60;;;;;;2103659;28;20021;-72
2023/05/19 00:49:44;;;;;;;7.60;3.33;;;10.50;91.80;;;;;;2106941;28;20030;-72
2023/05/19 00:50:45;;;;;;;6.70;3.10;;;10.50;91.80;;;;;;2103106;28;20016;-72
2023/05/19 00:51:46;;;;;;;8.68;3.95;;;10.50;91.80;;;;;;2102172;28;20028;-72
2023/05/19 00:52:47;;;;;;;5.20;3.00;;;10.50;92.00;;;;;;2104571;28;20024;-72
2023/05/19 00:53:49;;;;;;;5.47;3.35;;;10.50;91.60;;;;;;2103257;28;20429;-72
2023/05/19 00:54:51;;;;;;;4.40;2.97;;;10.50;91.80;;;;;;2103034;28;20021;-72
2023/05/19 00:55:52;;;;;;;6.25;3.45;;;10.50;91.80;;;;;;2101184;28;20113;-72
2023/05/19 00:56:57;;;;;;;7.50;3.88;;;10.50;92.30;;;;;;2105612;28;20033;-72
2023/05/19 00:57:58;;;;;;;5.35;3.40;;;10.40;92.80;;;;;;2103274;28;20553;-72
2023/05/19 00:58:59;;;;;;;7.72;4.55;;;10.40;92.30;;;;;;2104968;28;20441;-72
2023/05/19 01:00:00;;;;;;;5.20;3.15;;;10.40;92.60;;;;;;2103611;28;20031;-72
2023/05/19 01:01:06;;;;;;;8.88;3.53;;;10.40;92.70;;;;;;2104184;28;20055;-72
2023/05/19 01:02:06;;;;;;;6.32;3.10;;;10.40;92.80;;;;;;2105334;28;20471;-72
2023/05/19 01:03:10;;;;;;;7.82;3.28;;;10.40;93.10;;;;;;2101761;28;20023;-72
2023/05/19 01:04:15;;;;;;;5.53;3.22;;;10.40;93.00;;;;;;2107969;28;20106;-72
2023/05/19 01:05:16;;;;;;;5.80;3.25;;;10.40;92.90;;;;;;2105362;28;20020;-72
2023/05/19 01:06:20;;;;;;;7.82;2.90;;;10.30;93.00;;;;;;2105287;28;20099;-72
2023/05/19 01:07:22;;;;;;;4.47;2.72;;;10.30;92.60;;;;;;2105069;28;20074;-72
2023/05/19 01:08:22;;;;;;;5.65;3.15;;;10.30;92.50;;;;;;2104110;28;20496;-72
2023/05/19 01:09:23;;;;;;;9.23;4.20;;;10.30;92.30;;;;;;2105946;28;20771;-72
2023/05/19 01:10:23;;;;;;;4.38;2.92;;;10.30;93.30;;;;;;2103772;28;20021;-72
2023/05/19 01:11:24;;;;;;;6.80;3.38;;;10.30;93.40;;;;;;2103200;28;20024;-72
2023/05/19 01:12:25;;;;;;;7.63;3.65;;;10.30;93.90;;;;;;2105493;28;20093;-72
2023/05/19 01:13:27;;;;;;;6.45;3.20;;;10.30;93.80;;;;;;2106084;28;20093;-72
2023/05/19 01:14:28;;;;;;;7.72;3.30;;;10.20;93.80;;;;;;2105517;28;20492;-72
2023/05/19 01:15:32;;;;;;;8.80;3.72;;;10.30;94.00;;;;;;2103694;28;20809;-72
2023/05/19 01:16:41;;;;;;;6.10;3.70;;;10.20;94.30;;;;;;2104495;28;20023;-72
2023/05/19 01:18:10;;;;;;;7.18;3.38;;;10.20;95.10;;;;;;2104978;28;20086;-72
2023/05/19 01:19:49;;;;;;;5.65;3.63;;;10.20;94.80;;;;;;2103399;28;20403;-72
2023/05/19 01:21:23;;;;;;;5.82;3.85;;;10.10;97.10;;;;;;2098555;28;20566;-72
2023/05/19 01:22:53;;;;;;;7.75;4.53;;;10.10;96.90;;;;;;2097069;28;20063;-72
2023/05/19 01:24:16;;;;;;;7.47;3.83;;;10.10;98.30;;;;;;2105649;28;20020;-72
2023/05/19 01:25:35;;;;;;;10.20;3.97;;;10.10;99.20;;;;;;2106773;28;20042;-72
2023/05/19 01:26:52;;;;;;;8.95;4.13;;;10.00;99.80;;;;;;2104360;28;21599;-72
2023/05/19 01:28:07;;;;;;;10.20;4.57;;;10.00;99.60;;;;;;2106821;28;20019;-72
2023/05/19 01:29:19;;;;;;;6.22;3.90;;;10.00;99.90;;;;;;2108135;28;20081;-72
2023/05/19 01:30:33;;;;;;;12.52;4.47;;;10.00;99.90;;;;;;2104535;28;20027;-72
2023/05/19 01:31:37;;;;;;;8.15;4.28;;;10.00;99.90;;;;;;2105921;28;20040;-72
2023/05/19 01:32:40;;;;;;;8.15;3.95;;;10.00;99.90;;;;;;2104214;28;20453;-72
2023/05/19 01:33:43;;;;;;;8.10;4.60;;;10.00;99.90;;;;;;2103781;28;20043;-72
2023/05/19 01:34:47;;;;;;;10.35;4.78;;;10.00;99.90;;;;;;2104565;28;20028;-72
2023/05/19 01:35:49;;;;;;;10.20;4.60;;;10.00;99.90;;;;;;2105391;28;20511;-72
2023/05/19 01:36:51;;;;;;;7.53;4.43;;;10.00;99.90;;;;;;2107686;28;20032;-72
2023/05/19 01:37:55;;;;;;;13.15;5.47;;;10.00;99.90;;;;;;2106579;28;20051;-72
2023/05/19 01:38:58;;;;;;;9.85;4.53;;;10.00;99.90;;;;;;2107649;28;20032;-72
2023/05/19 01:39:59;;;;;;;8.93;4.70;;;10.00;99.90;;;;;;2103475;28;20590;-72
2023/05/19 01:41:02;;;;;;;5.82;3.75;;;10.00;99.90;;;;;;2105862;28;20028;-72
2023/05/19 01:42:03;;;;;;;13.95;5.25;;;10.00;99.90;;;;;;2104467;28;20034;-72
2023/05/19 01:43:06;;;;;;;7.60;4.10;;;10.00;99.90;;;;;;2103309;28;20038;-72
2023/05/19 01:44:08;;;;;;;9.27;4.40;;;10.00;99.90;;;;;;2105121;28;20080;-72
2023/05/19 01:45:09;;;;;;;11.90;4.60;;;10.00;99.90;;;;;;2102939;28;20494;-72
2023/05/19 01:46:10;;;;;;;10.10;4.85;;;10.00;99.90;;;;;;2102292;28;20033;-72
2023/05/19 01:47:11;;;;;;;9.07;4.28;;;10.00;99.90;;;;;;2107095;28;20050;-72
2023/05/19 01:48:12;;;;;;;7.53;3.70;;;10.00;99.90;;;;;;2104139;28;20016;-72
2023/05/19 01:49:13;;;;;;;9.32;4.82;;;10.00;99.90;;;;;;2105086;28;20020;-72
2023/05/19 01:50:14;;;;;;;7.95;4.13;;;10.00;99.90;;;;;;2104055;28;20023;-72
2023/05/19 01:51:15;;;;;;;4.40;3.92;;;10.00;99.90;;;;;;2106170;28;20090;-72
2023/05/19 01:52:15;;;;;;;10.43;4.18;;;10.00;99.90;;;;;;2104839;28;20024;-72
2023/05/19 01:53:16;;;;;;;7.82;3.95;;;10.00;99.90;;;;;;2104326;28;20115;-72
2023/05/19 01:54:16;;;;;;;11.02;5.05;;;10.00;99.90;;;;;;2106075;28;20033;-72
2023/05/19 01:55:17;;;;;;;7.28;4.18;;;10.00;99.90;;;;;;2106083;28;20165;-72
2023/05/19 01:56:34;;;;;;;8.68;4.28;;;10.00;99.90;;;;;;2103319;28;20047;-72
2023/05/19 01:58:12;;;;;;;7.55;4.55;;;10.00;99.90;;;;;;2106230;28;20032;-72
2023/05/19 01:59:43;;;;;;;7.15;4.22;;;10.00;99.90;;;;;;2105982;28;20024;-72
2023/05/19 02:01:18;;;;;;;7.85;4.43;;;9.90;99.90;;;;;;2085882;28;20049;-72
2023/05/19 02:02:52;;;;;;;9.55;4.45;;;9.90;99.90;;;;;;2104445;28;20125;-72
2023/05/19 02:04:08;;;;;;;11.13;4.88;;;9.90;99.90;;;;;;2109735;28;20020;-72
2023/05/19 02:05:28;;;;;;;5.68;4.93;;;9.80;99.90;;;;;;2106185;28;20113;-72
2023/05/19 02:06:43;;;;;;;8.52;4.25;;;9.90;99.90;;;;;;2105821;28;20487;-72
2023/05/19 02:07:55;;;;;;;8.38;4.85;;;9.80;99.90;;;;;;2104384;28;20388;-72
2023/05/19 02:08:56;;;;;;;9.77;4.95;;;9.90;99.90;;;;;;2104075;28;20035;-72
2023/05/19 02:10:06;;;;;;;9.75;4.93;;;9.80;99.90;;;;;;2104738;28;20030;-72
2023/05/19 02:11:32;;;;;;;7.47;4.90;;;9.80;99.90;;;;;;2105289;28;21272;-72
2023/05/19 02:12:38;;;;;;;8.85;4.75;;;9.80;99.90;;;;;;2105130;28;20158;-72
2023/05/19 02:13:43;;;;;;;8.85;4.65;;;9.80;99.90;;;;;;2105710;28;20108;-72
2023/05/19 02:15:03;;;;;;;10.40;4.45;;;9.80;99.90;;;;;;2105007;28;20090;-72
2023/05/19 02:16:05;;;;;;;8.52;4.93;;;9.80;99.90;;;;;;2106600;28;20470;-72
2023/05/19 02:17:05;;;;;;;10.45;5.60;;;9.80;99.90;;;;;;2103544;28;20028;-72
2023/05/19 02:18:09;;;;;;;9.38;4.85;;;9.80;99.90;;;;;;2104400;28;20024;-72
2023/05/19 02:19:26;;;;;;;7.75;5.22;;;9.80;99.90;;;;;;2107522;28;20035;-72
2023/05/19 02:20:26;;;;;;;12.85;5.68;;;9.80;99.90;;;;;;2102666;28;21965;-72
2023/05/19 02:21:27;;;;;;;11.07;5.35;;;9.80;99.90;;;;;;2104416;28;20028;-72
2023/05/19 02:22:27;;;;;;;10.10;4.95;;;9.80;99.90;;;;;;2106835;28;20024;-72
2023/05/19 02:23:28;;;;;;;9.98;5.13;;;9.80;99.90;;;;;;2103926;28;20040;-72
2023/05/19 02:24:29;;;;;;;9.27;4.57;;;9.80;99.90;;;;;;2102911;28;20510;-72
2023/05/19 02:25:29;;;;;;;11.32;5.03;;;9.80;99.90;;;;;;2105116;28;20050;-72
2023/05/19 02:26:30;;;;;;;9.88;4.93;;;9.80;99.90;;;;;;2106426;28;20024;-72
2023/05/19 02:27:31;;;;;;;9.05;4.55;;;9.80;99.90;;;;;;2104329;28;20020;-72
2023/05/19 02:28:32;;;;;;;7.13;5.05;;;9.80;99.90;;;;;;2104247;28;20020;-72
2023/05/19 02:29:32;;;;;;;9.95;4.63;;;9.80;99.90;;;;;;2104172;28;20040;-72
2023/05/19 02:30:33;;;;;;;10.48;4.90;;;9.80;99.90;;;;;;2103548;28;20017;-72
2023/05/19 02:31:33;;;;;;;8.18;4.97;;;9.80;99.90;;;;;;2103782;28;20052;-72
2023/05/19 02:32:35;;;;;;;10.15;4.85;;;9.80;99.90;;;;;;2105103;28;20027;-72
2023/05/19 02:33:36;;;;;;;11.20;5.72;;;9.80;99.90;;;;;;2101118;28;20103;-72
2023/05/19 02:34:36;;;;;;;8.75;5.10;;;9.80;99.90;;;;;;2102931;28;20039;-72
2023/05/19 02:35:37;;;;;;;8.30;5.47;;;9.80;99.90;;;;;;2104246;28;20024;-72
2023/05/19 02:36:42;;;;;;;10.85;5.07;;;9.80;99.90;;;;;;2106822;28;20028;-72
2023/05/19 02:37:43;;;;;;;10.60;5.80;;;9.70;99.90;;;;;;2108535;28;20028;-72
2023/05/19 02:38:43;;;;;;;9.93;5.78;;;9.70;99.90;;;;;;2103702;28;20028;-72
2023/05/19 02:39:44;;;;;;;8.70;5.53;;;9.70;99.90;;;;;;2102438;28;20012;-72
2023/05/19 02:40:44;;;;;;;9.13;5.10;;;9.70;99.90;;;;;;2104637;28;20020;-72
2023/05/19 02:41:45;;;;;;;9.35;4.63;;;9.80;99.90;;;;;;2103872;28;20478;-72
2023/05/19 02:42:45;;;;;;;9.73;4.53;;;9.70;99.90;;;;;;2104154;28;20031;-72
2023/05/19 02:43:46;;;;;;;7.47;4.90;;;9.70;99.90;;;;;;2104562;28;20056;-72
2023/05/19 02:44:47;;;;;;;12.48;5.82;;;9.70;99.90;;;;;;2105807;28;20048;-72
2023/05/19 02:45:48;;;;;;;8.57;5.40;;;9.70;99.90;;;;;;2103923;28;20028;-72
2023/05/19 02:46:48;;;;;;;6.78;4.93;;;9.70;99.90;;;;;;2104104;28;20047;-72
2023/05/19 02:47:49;;;;;;;7.25;4.75;;;9.70;99.90;;;;;;2104168;28;20020;-72
2023/05/19 02:48:50;;;;;;;11.75;5.82;;;9.70;99.90;;;;;;2105692;28;20013;-72
2023/05/19 02:49:50;;;;;;;9.90;5.57;;;9.70;99.90;;;;;;2103004;28;20480;-72
2023/05/19 02:50:51;;;;;;;11.88;5.68;;;9.70;99.90;;;;;;2104566;28;20431;-72
2023/05/19 02:51:52;;;;;;;10.55;5.53;;;9.70;99.90;;;;;;2104737;28;20040;-72
2023/05/19 02:52:52;;;;;;;10.38;5.65;;;9.60;99.90;;;;;;2105306;28;20036;-72
2023/05/19 02:53:53;;;;;;;9.93;5.63;;;9.60;99.90;;;;;;2105285;28;20024;-72
2023/05/19 02:54:53;;;;;;;10.43;6.10;;;9.60;99.90;;;;;;2101979;28;20040;-72
2023/05/19 02:55:54;;;;;;;11.98;5.60;;;9.70;99.90;;;;;;2104831;28;20110;-72
2023/05/19 02:56:54;;;;;;;11.15;5.72;;;9.60;99.90;;;;;;2106183;28;20024;-72
2023/05/19 02:57:55;;;;;;;12.23;5.65;;;9.60;99.90;;;;;;2105792;28;20032;-72
2023/05/19 02:58:57;;;;;;;12.60;5.90;;;9.60;99.90;;;;;;2107824;28;20040;-72
2023/05/19 02:59:57;;;;;;;13.05;5.40;;;9.60;99.90;;;;;;2106022;28;20054;-72
2023/05/19 03:00:58;;;;;;;13.82;4.88;;;9.60;99.90;;;;;;2102968;28;20434;-72
2023/05/19 03:02:00;;;;;;;11.18;5.75;;;9.60;99.90;;;;;;2104970;28;20036;-72
2023/05/19 03:03:01;;;;;;;9.05;5.53;;;9.60;99.90;;;;;;2102020;28;20435;-72
2023/05/19 03:04:02;;;;;;;8.82;5.50;;;9.60;99.90;;;;;;2100889;28;20035;-72
2023/05/19 03:05:03;;;;;;;7.70;5.15;;;9.60;99.90;;;;;;2097308;28;20036;-72
2023/05/19 03:06:07;;;;;;;9.48;5.45;;;9.60;99.90;;;;;;2099379;28;20024;-72
2023/05/19 03:07:09;;;;;;;12.02;5.55;;;9.60;99.90;;;;;;2104110;28;20028;-72
2023/05/19 03:08:09;;;;;;;10.13;5.80;;;9.60;99.90;;;;;;2105913;28;20024;-72
2023/05/19 03:09:10;;;;;;;9.35;5.85;;;9.60;99.90;;;;;;2104564;28;20024;-72
2023/05/19 03:10:10;;;;;;;7.55;5.40;;;9.60;99.90;;;;;;2104819;28;20388;-72
2023/05/19 03:11:11;;;;;;;12.48;6.60;;;9.60;99.90;;;;;;2103786;28;20019;-72
2023/05/19 03:12:11;;;;;;;8.55;6.13;;;9.60;99.90;;;;;;2100863;28;20035;-72
2023/05/19 03:13:12;;;;;;;12.23;5.97;;;9.60;99.90;;;;;;2105902;28;20034;-72
2023/05/19 03:14:12;;;;;;;10.43;6.05;;;9.60;99.90;;;;;;2102926;28;20028;-72
2023/05/19 03:15:13;;;;;;;11.48;6.43;;;9.60;99.90;;;;;;2103862;28;20139;-72
2023/05/19 03:16:14;;;;;;;8.90;5.50;;;9.50;99.90;;;;;;2104323;28;20046;-72
2023/05/19 03:17:14;;;;;;;10.52;5.45;;;9.50;99.90;;;;;;2102725;28;20024;-72
2023/05/19 03:18:15;;;;;;;8.23;5.30;;;9.50;99.90;;;;;;2104459;28;20028;-72
2023/05/19 03:19:16;;;;;;;8.63;4.97;;;9.60;99.90;;;;;;2104461;28;20032;-72
2023/05/19 03:20:17;;;;;;;6.22;4.68;;;9.50;99.90;;;;;;2102382;28;20032;-72
2023/05/19 03:21:18;;;;;;;7.60;4.78;;;9.50;99.90;;;;;;2105214;28;20526;-72
2023/05/19 03:22:19;;;;;;;7.40;5.47;;;9.50;99.90;;;;;;2104134;28;20055;-72
2023/05/19 03:23:21;;;;;;;9.98;5.38;;;9.50;99.90;;;;;;2105156;28;20028;-72
2023/05/19 03:24:21;;;;;;;11.07;6.18;;;9.50;99.90;;;;;;2105266;28;20111;-72
2023/05/19 03:25:22;;;;;;;11.43;6.53;;;9.50;99.90;;;;;;2102944;28;20024;-72
2023/05/19 03:26:23;;;;;;;10.05;5.30;;;9.50;99.90;;;;;;2105796;28;20391;-72
2023/05/19 03:27:23;;;;;;;7.20;4.82;;;9.50;99.90;;;;;;2104411;28;20032;-72
2023/05/19 03:28:26;;;;;;;9.50;5.75;;;9.50;99.90;;;;;;2104176;28;20038;-72
2023/05/19 03:29:26;;;;;;;11.57;5.18;;;9.50;99.90;;;;;;2105720;28;20099;-72
2023/05/19 03:30:27;;;;;;;11.80;5.50;;;9.50;99.90;;;;;;2105954;28;20023;-72
2023/05/19 03:31:29;;;;;;;8.27;5.25;;;9.50;99.90;;;;;;2103912;28;20020;-72
2023/05/19 03:32:31;;;;;;;9.57;4.93;;;9.50;99.90;;;;;;2103311;28;20027;-72
2023/05/19 03:33:32;;;;;;;5.00;4.18;;;9.50;99.90;;;;;;2105572;28;20061;-72
2023/05/19 03:34:32;;;;;;;7.10;4.45;;;9.50;99.90;;;;;;2103878;28;20686;-72
2023/05/19 03:35:33;;;;;;;7.20;5.03;;;9.50;99.90;;;;;;2105243;28;20024;-72
2023/05/19 03:36:43;;;;;;;8.20;5.38;;;9.50;99.90;;;;;;2104199;28;20502;-72
2023/05/19 03:37:44;;;;;;;9.52;5.65;;;9.50;99.90;;;;;;2102420;28;20070;-72
2023/05/19 03:38:45;;;;;;;9.50;6.13;;;9.50;99.90;;;;;;2104295;28;20017;-72
2023/05/19 03:39:45;;;;;;;7.65;4.78;;;9.40;99.90;;;;;;2104593;28;20043;-72
2023/05/19 03:40:45;;;;;;;9.35;4.43;;;9.40;99.90;;;;;;2103654;28;20107;-72
2023/05/19 03:41:46;;;;;;;10.80;4.78;;;9.50;99.90;;;;;;2103970;28;20055;-72
2023/05/19 03:42:47;;;;;;;7.57;4.53;;;9.40;99.90;;;;;;2103015;28;20107;-72
2023/05/19 03:43:47;;;;;;;7.60;5.15;;;9.40;99.90;;;;;;2105252;28;20027;-72
2023/05/19 03:44:48;;;;;;;7.40;5.38;;;9.40;99.90;;;;;;2102413;28;20051;-72
2023/05/19 03:45:48;;;;;;;9.80;6.20;;;9.40;99.90;;;;;;2105330;28;20115;-72
2023/05/19 03:46:49;;;;;;;8.48;5.55;;;9.40;99.90;;;;;;2103995;28;20518;-72
2023/05/19 03:47:49;;;;;;;11.35;5.95;;;9.40;99.90;;;;;;2105082;28;20016;-72
2023/05/19 03:48:50;;;;;;;9.10;5.70;;;9.40;99.90;;;;;;2105762;28;20150;-72
2023/05/19 03:49:50;;;;;;;8.27;5.28;;;9.40;99.90;;;;;;2101096;28;20012;-72
2023/05/19 03:50:51;;;;;;;6.03;4.57;;;9.40;99.90;;;;;;2105396;28;20771;-72
2023/05/19 03:51:51;;;;;;;9.23;5.15;;;9.40;99.90;;;;;;2104547;28;20481;-72
2023/05/19 03:52:52;;;;;;;5.63;4.85;;;9.40;99.90;;;;;;2103709;28;20839;-72
2023/05/19 03:53:52;;;;;;;8.95;5.63;;;9.40;99.90;;;;;;2102688;28;20387;-72
2023/05/19 03:54:53;;;;;;;9.90;5.07;;;9.40;99.90;;;;;;2102196;28;20487;-72
2023/05/19 03:55:55;;;;;;;7.50;5.40;;;9.40;99.90;;;;;;2103430;28;20039;-72
2023/05/19 03:56:56;;;;;;;6.15;4.32;;;9.40;99.90;;;;;;2104312;28;20395;-72
2023/05/19 03:57:56;;;;;;;7.68;4.70;;;9.40;99.90;;;;;;2102897;28;20055;-72
2023/05/19 03:58:57;;;;;;;6.93;4.82;;;9.40;99.90;;;;;;2105073;28;20050;-72
2023/05/19 03:59:57;;;;;;;7.63;5.10;;;9.40;99.90;;;;;;2103682;28;20103;-72
2023/05/19 04:00:58;;;;;;;7.55;5.40;;;9.40;99.90;;;;;;2103190;28;20056;-72
2023/05/19 04:01:58;;;;;;;5.85;5.00;;;9.40;99.90;;;;;;2103784;28;20066;-72
2023/05/19 04:02:59;;;;;;;6.38;4.70;;;9.40;99.90;;;;;;2103530;28;20024;-72
2023/05/19 04:03:59;;;;;;;9.95;5.03;;;9.40;99.90;;;;;;2103182;28;20547;-72
2023/05/19 04:05:00;;;;;;;8.45;5.38;;;9.40;99.90;;;;;;2104644;28;20043;-72
2023/05/19 04:06:00;;;;;;;6.70;4.68;;;9.40;99.90;;;;;;2101407;28;20064;-72
2023/05/19 04:07:01;;;;;;;8.77;5.55;;;9.40;99.90;;;;;;2101810;28;20162;-72
2023/05/19 04:08:01;;;;;;;8.18;5.80;;;9.40;99.90;;;;;;2105070;28;20039;-72
2023/05/19 04:09:09;;;;;;;9.68;4.65;;;9.40;99.90;;;;;;2103575;28;20081;-72
2023/05/19 04:10:10;;;;;;;8.70;5.00;;;9.40;99.90;;;;;;2104108;28;20028;-72
2023/05/19 04:11:11;;;;;;;9.38;5.45;;;9.40;99.90;;;;;;2102149;28;20031;-72
2023/05/19 04:12:11;;;;;;;8.73;4.93;;;9.40;99.90;;;;;;2104519;28;20110;-72
2023/05/19 04:13:12;;;;;;;7.90;4.50;;;9.40;99.90;;;;;;2105697;28;20032;-72
2023/05/19 04:14:12;;;;;;;9.10;5.07;;;9.40;99.90;;;;;;2101915;28;20036;-72
2023/05/19 04:15:13;;;;;;;9.32;5.25;;;9.40;99.90;;;;;;2103563;28;20139;-72
2023/05/19 04:16:14;;;;;;;8.02;5.00;;;9.40;99.90;;;;;;2103228;28;20046;-72
2023/05/19 04:17:14;;;;;;;9.00;5.65;;;9.40;99.90;;;;;;2103888;28;20032;-72
2023/05/19 04:18:15;;;;;;;10.98;5.88;;;9.40;99.90;;;;;;2105767;28;20063;-72
2023/05/19 04:19:15;;;;;;;9.00;5.57;;;9.40;99.90;;;;;;2101867;28;20039;-72
2023/05/19 04:20:16;;;;;;;12.15;5.75;;;9.40;99.90;;;;;;2103346;28;20048;-72
2023/05/19 04:21:16;;;;;;;7.60;5.53;;;9.40;99.90;;;;;;2104042;28;20395;-72
2023/05/19 04:22:17;;;;;;;9.65;5.80;;;9.40;99.90;;;;;;2100775;28;20035;-72
2023/05/19 04:23:17;;;;;;;10.18;5.40;;;9.40;99.90;;;;;;2103054;28;20077;-72
2023/05/19 04:24:18;;;;;;;8.25;5.60;;;9.40;99.90;;;;;;2104538;28;20031;-72
2023/05/19 04:25:19;;;;;;;9.57;5.47;;;9.50;99.90;;;;;;2105201;28;20028;-72
2023/05/19 04:26:21;;;;;;;7.95;6.30;;;9.50;99.90;;;;;;2105426;28;20489;-72
2023/05/19 04:27:21;;;;;;;9.70;5.53;;;9.50;99.90;;;;;;2104536;28;20069;-72
2023/05/19 04:28:22;;;;;;;7.40;5.43;;;9.50;99.90;;;;;;2105059;28;20103;-72
2023/05/19 04:29:23;;;;;;;7.07;5.68;;;9.50;99.90;;;;;;2106242;28;20039;-72
2023/05/19 04:30:24;;;;;;;8.88;5.88;;;9.60;99.90;;;;;;2101614;28;20098;-72
2023/05/19 04:31:24;;;;;;;10.88;5.97;;;9.60;99.90;;;;;;2104684;28;20114;-72
2023/05/19 04:32:25;;;;;;;9.15;5.75;;;9.80;99.90;;;;;;2102230;28;20025;-72
2023/05/19 04:33:28;;;;;;;11.38;6.10;;;9.90;99.90;;;;;;2102737;28;20077;-72
2023/05/19 04:34:28;;;;;;;11.50;6.70;;;9.90;99.90;;;;;;2105071;28;20036;-72
2023/05/19 04:35:29;;;;;;;12.65;6.82;;;10.00;99.90;;;;;;2102161;28;20033;-72
2023/05/19 04:36:30;;;;;;;8.18;6.35;;;10.10;99.90;;;;;;2103830;28;20020;-72
2023/05/19 04:37:30;;;;;;;8.52;5.88;;;10.10;99.90;;;;;;2105013;28;20487;-72
2023/05/19 04:38:31;;;;;;;9.88;5.75;;;10.10;99.90;;;;;;2102177;28;20020;-72
2023/05/19 04:39:31;;;;;;;12.05;6.15;;;10.10;99.90;;;;;;2103812;28;20024;-72
2023/05/19 04:40:32;;;;;;;9.85;5.93;;;10.10;99.90;;;;;;2102931;28;20035;-72
2023/05/19 04:41:33;;;;;;;10.43;6.15;;;10.20;99.90;;;;;;2104816;28;20116;-72
2023/05/19 04:42:34;;;;;;;9.55;6.03;;;10.20;99.90;;;;;;2104809;28;20024;-72
2023/05/19 04:43:34;;;;;;;11.02;6.60;;;10.20;99.90;;;;;;2103870;28;20024;-72
2023/05/19 04:44:36;;;;;;;9.05;6.40;;;10.20;99.90;;;;;;2102850;28;20089;-72
2023/05/19 04:45:41;;;;;;;11.32;6.93;;;10.20;99.90;;;;;;2104364;28;20066;-72
2023/05/19 04:46:43;;;;;;;9.07;5.82;;;10.30;99.90;;;;;;2103255;28;20102;-72
2023/05/19 04:47:46;;;;;;;12.15;6.22;;;10.30;99.90;;;;;;2103771;28;20030;-72
2023/05/19 04:48:47;;;;;;;9.00;5.95;;;10.40;99.90;;;;;;2104089;28;20093;-72
2023/05/19 04:49:47;;;;;;;14.55;6.35;;;10.40;99.90;;;;;;2102095;28;20078;-72
2023/05/19 04:50:50;;;;;;;10.35;5.75;;;10.40;99.90;;;;;;2104848;28;20099;-72
2023/05/19 04:51:51;;;;;;;9.98;5.60;;;10.50;99.90;;;;;;2102343;28;20023;-72
2023/05/19 04:52:52;;;;;;;11.15;5.53;;;10.50;99.90;;;;;;2104567;28;20078;-72
2023/05/19 04:53:56;;;;;;;11.65;7.22;;;10.60;99.90;;;;;;2103386;28;20035;-72
2023/05/19 04:54:57;;;;;;;10.68;6.18;;;10.60;99.90;;;;;;2103067;28;20040;-72
2023/05/19 04:55:59;;;;;;;10.07;6.32;;;10.70;99.90;;;;;;2103247;28;20062;-72
2023/05/19 04:57:00;;;;;;;11.35;5.82;;;10.70;99.90;;;;;;2105060;28;20035;-72
2023/05/19 04:58:00;;;;;;;9.90;6.00;;;10.80;99.90;;;;;;2101386;28;20032;-72
2023/05/19 04:59:01;;;;;;;10.13;5.60;;;10.80;99.90;;;;;;2104004;28;20036;-72
2023/05/19 05:00:03;;;;;;;12.30;5.80;;;10.90;99.90;;;;;;2104077;28;20059;-72
2023/05/19 05:01:04;;;;;;;9.95;5.63;;;10.90;99.90;;;;;;2100801;28;20043;-72
2023/05/19 05:02:05;;;;;;;8.25;5.88;;;11.00;99.90;;;;;;2104543;28;20071;-72
2023/05/19 05:03:06;;;;;;;9.77;5.50;;;11.10;99.90;;;;;;2103153;28;20035;-72
2023/05/19 05:04:06;;;;;;;12.32;6.25;;;11.20;99.90;;;;;;2100643;28;20060;-72
2023/05/19 05:05:08;;;;;;;10.05;5.80;;;11.20;99.90;;;;;;2105471;28;20027;-72
2023/05/19 05:06:09;;;;;;;7.75;5.35;;;11.30;99.90;;;;;;2103983;28;20478;-72
2023/05/19 05:07:09;;;;;;;11.23;6.03;;;11.30;99.90;;;;;;2102735;28;20016;-72
2023/05/19 05:08:10;;;;;;;6.68;4.93;;;11.40;99.90;;;;;;2104779;28;20043;-72
2023/05/19 05:09:11;;;;;;;10.02;6.10;;;11.40;99.90;;;;;;2101450;28;20096;-72
2023/05/19 05:10:11;;;;;;;9.10;5.45;;;11.50;99.90;;;;;;2104519;28;20016;-72
2023/05/19 05:11:12;;;;;;;10.48;6.20;;;11.50;99.90;;;;;;2103942;28;20024;-72
2023/05/19 05:12:13;;;;;;;11.90;6.13;;;11.60;99.90;;;;;;2103091;28;20032;-72
2023/05/19 05:13:14;;;;;;;10.02;5.13;;;11.70;99.90;;;;;;2104841;28;20487;-72
2023/05/19 05:14:15;;;;;;;10.52;5.60;;;11.80;99.90;;;;;;2103362;28;20398;-72
2023/05/19 05:15:16;;;;;;;12.20;6.07;;;11.90;99.90;;;;;;2102650;28;20078;-72
2023/05/19 05:16:17;;;;;;;6.57;5.28;;;12.00;99.90;;;;;;2106407;28;20779;-72
2023/05/19 05:17:19;;;;;;;10.30;5.60;;;12.00;99.90;;;;;;2102001;28;20396;-72
2023/05/19 05:18:19;;;;;;;12.15;5.55;;;12.10;99.90;;;;;;2106370;28;20032;-72
2023/05/19 05:19:21;;;;;;;11.30;6.32;;;12.20;99.90;;;;;;2105579;28;20511;-72
2023/05/19 05:20:22;;;;;;;10.35;5.43;;;12.30;99.90;;;;;;2103024;28;20036;-72
2023/05/19 05:21:23;;;;;;;9.23;5.80;;;12.30;99.90;;;;;;2103728;28;20083;-72
2023/05/19 05:22:23;;;;;;;8.52;4.72;;;12.40;99.90;;;;;;2101945;28;20021;-72
2023/05/19 05:23:24;;;;;;;10.02;5.30;;;12.50;99.90;;;;;;2101187;28;20037;-72
2023/05/19 05:24:25;;;;;;;7.78;4.95;;;12.60;99.90;;;;;;2102163;28;20666;-72
2023/05/19 05:25:26;;;;;;;9.05;5.47;;;12.60;99.90;;;;;;2102912;28;20028;-72
2023/05/19 05:26:32;;;;;;;12.32;5.97;;;12.70;99.90;;;;;;2106420;28;20024;-72
2023/05/19 05:27:32;;;;;;;8.35;5.03;;;12.70;99.90;;;;;;2104355;28;20016;-72